Time,TemperatureF,DewpointF,PressureIn,WindDirection,WindDirectionDegrees,WindSpeedMPH,WindSpeedGustMPH,Humidity,HourlyPrecipIn,Conditions,Clouds,dailyrainin,SoftwareType,DateUTC
2013-09-12 02:46:00,70.7,69.8,30.03,SW,231,1.0,1.0,97,0.00,,,0.01,Wunderground v.1.15,2013-09-12 07:46:00,
2013-09-12 02:51:00,70.8,69.9,30.03,SW,221,0.0,0.0,97,0.00,,,0.01,Wunderground v.1.15,2013-09-12 07:51:00,
2013-09-12 02:56:00,70.9,70.0,30.03,SW,221,0.0,1.0,97,0.00,,,0.01,Wunderground v.1.15,2013-09-12 07:56:00,
2013-09-12 03:01:00,70.9,69.7,30.03,SW,221,0.0,0.0,96,0.00,,,0.01,Wunderground v.1.15,2013-09-12 08:01:00,
2013-09-12 03:06:00,71.0,69.8,30.02,SW,221,0.0,0.0,96,0.00,,,0.01,Wunderground v.1.15,2013-09-12 08:06:00,
2013-09-12 03:11:00,71.0,69.8,30.02,SW,221,0.0,0.0,96,0.00,,,0.01,Wunderground v.1.15,2013-09-12 08:11:00,
2013-09-12 03:16:00,71.1,69.9,30.02,SW,226,0.0,1.0,96,0.00,,,0.01,Wunderground v.1.15,2013-09-12 08:16:00,
2013-09-12 03:21:00,71.2,70.0,30.02,SW,226,0.0,0.0,96,0.00,,,0.01,Wunderground v.1.15,2013-09-12 08:21:00,
2013-09-12 03:26:00,71.2,70.0,30.02,SW,225,0.0,1.0,96,0.00,,,0.01,Wunderground v.1.15,2013-09-12 08:26:00,
2013-09-12 03:31:00,71.3,70.1,30.02,SW,226,1.0,1.0,96,0.00,,,0.01,Wunderground v.1.15,2013-09-12 08:31:00,
2013-09-12 03:36:00,71.4,70.2,30.02,SW,226,1.0,1.0,96,0.00,,,0.01,Wunderground v.1.15,2013-09-12 08:36:00,
2013-09-12 03:41:00,71.4,70.2,30.02,SW,219,0.0,2.0,96,0.00,,,0.01,Wunderground v.1.15,2013-09-12 08:41:00,
2013-09-12 03:46:00,71.4,70.2,30.01,SW,225,0.0,2.0,96,0.00,,,0.01,Wunderground v.1.15,2013-09-12 08:46:00,
2013-09-12 03:51:00,71.4,70.2,30.01,SW,222,0.0,1.0,96,0.00,,,0.01,Wunderground v.1.15,2013-09-12 08:51:00,
2013-09-12 03:56:00,71.4,70.2,30.01,SW,222,0.0,1.0,96,0.00,,,0.01,Wunderground v.1.15,2013-09-12 08:56:00,
2013-09-12 04:01:00,71.4,70.2,30.01,SW,222,0.0,1.0,96,0.00,,,0.01,Wunderground v.1.15,2013-09-12 09:01:00,
2013-09-12 04:06:00,71.4,70.2,30.01,SW,223,0.0,1.0,96,0.00,,,0.01,Wunderground v.1.15,2013-09-12 09:06:00,
2013-09-12 04:11:00,71.2,70.0,30.01,SW,222,0.0,0.0,96,0.00,,,0.01,Wunderground v.1.15,2013-09-12 09:11:00,
2013-09-12 04:16:00,71.2,70.3,30.01,SW,222,0.0,0.0,97,0.00,,,0.01,Wunderground v.1.15,2013-09-12 09:16:00,
2013-09-12 04:21:00,71.2,70.3,30.01,SW,222,0.0,1.0,97,0.00,,,0.01,Wunderground v.1.15,2013-09-12 09:21:00,
2013-09-12 04:26:00,71.2,70.3,30.01,SW,223,0.0,1.0,97,0.00,,,0.01,Wunderground v.1.15,2013-09-12 09:26:00,
2013-09-12 04:31:00,71.1,70.2,30.01,SW,222,0.0,0.0,97,0.00,,,0.01,Wunderground v.1.15,2013-09-12 09:31:00,
2013-09-12 04:36:00,71.1,70.2,30.01,SW,222,0.0,0.0,97,0.00,,,0.01,Wunderground v.1.15,2013-09-12 09:36:00,
2013-09-12 04:41:00,70.9,70.0,30.01,SW,222,0.0,0.0,97,0.00,,,0.01,Wunderground v.1.15,2013-09-12 09:41:00,
2013-09-12 04:46:00,70.8,69.6,30.01,SW,223,0.0,0.0,96,0.00,,,0.01,Wunderground v.1.15,2013-09-12 09:46:00,
2013-09-12 04:51:00,70.7,69.8,30.02,SW,222,0.0,0.0,97,0.00,,,0.01,Wunderground v.1.15,2013-09-12 09:51:00,
2013-09-12 04:56:00,70.7,69.8,30.02,SW,222,0.0,0.0,97,0.00,,,0.01,Wunderground v.1.15,2013-09-12 09:56:00,
2013-09-12 05:01:00,70.7,69.8,30.02,SW,223,0.0,0.0,97,0.00,,,0.01,Wunderground v.1.15,2013-09-12 10:01:00,
2013-09-12 05:06:00,70.5,69.6,30.02,SW,222,0.0,0.0,97,0.00,,,0.01,Wunderground v.1.15,2013-09-12 10:06:00,
2013-09-12 05:11:00,70.5,69.6,30.02,SW,222,0.0,0.0,97,0.00,,,0.01,Wunderground v.1.15,2013-09-12 10:11:00,
2013-09-12 05:16:00,70.5,69.6,30.02,SW,222,0.0,0.0,97,0.00,,,0.01,Wunderground v.1.15,2013-09-12 10:16:00,
2013-09-12 05:21:00,70.5,69.6,30.02,SW,223,0.0,0.0,97,0.00,,,0.01,Wunderground v.1.15,2013-09-12 10:21:00,
2013-09-12 05:26:00,70.4,69.5,30.02,SW,222,0.0,0.0,97,0.00,,,0.01,Wunderground v.1.15,2013-09-12 10:26:00,
2013-09-12 05:31:00,70.4,69.5,30.02,SW,222,0.0,0.0,97,0.00,,,0.01,Wunderground v.1.15,2013-09-12 10:31:00,
2013-09-12 05:36:00,70.6,70.0,30.02,SW,222,0.0,0.0,98,0.00,,,0.01,Wunderground v.1.15,2013-09-12 10:36:00,
2013-09-12 05:41:00,70.7,70.1,30.02,SW,222,0.0,0.0,98,0.00,,,0.01,Wunderground v.1.15,2013-09-12 10:41:00,
2013-09-12 05:46:00,70.8,70.2,30.02,SW,222,0.0,0.0,98,0.00,,,0.01,Wunderground v.1.15,2013-09-12 10:46:00,
2013-09-12 05:51:00,70.8,70.2,30.02,SW,222,0.0,0.0,98,0.00,,,0.01,Wunderground v.1.15,2013-09-12 10:51:00,
2013-09-12 05:56:00,70.9,70.3,30.02,SW,222,0.0,0.0,98,0.00,,,0.01,Wunderground v.1.15,2013-09-12 10:56:00,
2013-09-12 06:01:00,70.9,70.3,30.02,SW,222,0.0,0.0,98,0.00,,,0.01,Wunderground v.1.15,2013-09-12 11:01:00,
2013-09-12 06:06:00,70.9,70.3,30.02,SW,222,0.0,0.0,98,0.00,,,0.01,Wunderground v.1.15,2013-09-12 11:06:00,
2013-09-12 06:11:00,71.1,70.5,30.02,SW,222,0.0,1.0,98,0.00,,,0.01,Wunderground v.1.15,2013-09-12 11:11:00,
2013-09-12 06:16:00,71.2,70.6,30.02,SW,222,0.0,1.0,98,0.00,,,0.01,Wunderground v.1.15,2013-09-12 11:16:00,
2013-09-12 06:21:00,71.2,70.6,30.02,SW,222,0.0,0.0,98,0.00,,,0.01,Wunderground v.1.15,2013-09-12 11:21:00,
2013-09-12 06:26:00,71.1,70.5,30.02,SW,222,0.0,0.0,98,0.00,,,0.01,Wunderground v.1.15,2013-09-12 11:26:00,
2013-09-12 06:31:00,71.1,70.5,30.02,SW,222,0.0,0.0,98,0.00,,,0.01,Wunderground v.1.15,2013-09-12 11:31:00,
2013-09-12 06:36:00,71.1,70.5,30.02,SW,221,0.0,1.0,98,0.00,,,0.01,Wunderground v.1.15,2013-09-12 11:36:00,
2013-09-12 06:41:00,71.0,70.1,30.02,SW,221,0.0,0.0,97,0.00,,,0.01,Wunderground v.1.15,2013-09-12 11:41:00,
2013-09-12 06:46:00,71.0,70.1,30.03,SW,221,0.0,0.0,97,0.00,,,0.01,Wunderground v.1.15,2013-09-12 11:46:00,
2013-09-12 06:51:00,71.1,70.5,30.03,SW,222,1.0,1.0,98,0.00,,,0.01,Wunderground v.1.15,2013-09-12 11:51:00,
2013-09-12 06:56:00,71.1,70.5,30.03,SW,225,0.0,1.0,98,0.00,,,0.01,Wunderground v.1.15,2013-09-12 11:56:00,
2013-09-12 07:01:00,71.1,70.5,30.03,SW,226,0.0,1.0,98,0.00,,,0.01,Wunderground v.1.15,2013-09-12 12:01:00,
2013-09-12 07:06:00,71.2,70.6,30.03,SW,226,0.0,1.0,98,0.00,,,0.01,Wunderground v.1.15,2013-09-12 12:06:00,
2013-09-12 07:11:00,71.2,70.6,30.03,SW,226,0.0,1.0,98,0.00,,,0.01,Wunderground v.1.15,2013-09-12 12:11:00,
2013-09-12 07:16:00,71.2,70.6,30.03,WSW,239,0.0,1.0,98,0.00,,,0.01,Wunderground v.1.15,2013-09-12 12:16:00,
2013-09-12 07:22:00,71.2,70.6,30.03,WSW,239,0.0,1.0,98,0.00,,,0.01,Wunderground v.1.15,2013-09-12 12:22:00,
2013-09-12 07:27:00,71.3,70.7,30.03,SW,225,0.0,2.0,98,0.00,,,0.01,Wunderground v.1.15,2013-09-12 12:27:00,
2013-09-12 07:32:00,71.4,70.8,30.03,SW,221,1.0,2.0,98,0.00,,,0.01,Wunderground v.1.15,2013-09-12 12:32:00,
2013-09-12 07:37:00,71.5,70.9,30.03,SW,225,1.0,2.0,98,0.00,,,0.01,Wunderground v.1.15,2013-09-12 12:37:00,
2013-09-12 07:42:00,71.8,71.2,30.03,SW,222,0.0,2.0,98,0.00,,,0.01,Wunderground v.1.15,2013-09-12 12:42:00,
2013-09-12 07:47:00,72.1,71.5,30.03,SW,224,0.0,2.0,98,0.00,,,0.01,Wunderground v.1.15,2013-09-12 12:47:00,
2013-09-12 07:52:00,72.5,71.6,30.03,SW,219,1.0,1.0,97,0.00,,,0.01,Wunderground v.1.15,2013-09-12 12:52:00,
2013-09-12 07:57:00,72.8,71.9,30.03,SW,228,3.0,4.0,97,0.00,,,0.01,Wunderground v.1.15,2013-09-12 12:57:00,
2013-09-12 08:02:00,73.2,72.3,30.03,WSW,239,1.0,2.0,97,0.00,,,0.01,Wunderground v.1.15,2013-09-12 13:02:00,
2013-09-12 08:07:00,73.6,72.4,30.03,SW,236,0.0,3.0,96,0.00,,,0.01,Wunderground v.1.15,2013-09-12 13:07:00,
2013-09-12 08:12:00,73.9,72.7,30.03,West,270,0.0,2.0,96,0.00,,,0.01,Wunderground v.1.15,2013-09-12 13:12:00,
2013-09-12 08:17:00,74.4,72.9,30.03,SW,218,1.0,3.0,95,0.00,,,0.01,Wunderground v.1.15,2013-09-12 13:17:00,
2013-09-12 08:22:00,74.9,73.4,30.03,WSW,242,0.0,2.0,95,0.00,,,0.01,Wunderground v.1.15,2013-09-12 13:22:00,
2013-09-12 08:27:00,75.3,73.5,30.03,West,259,1.0,3.0,94,0.00,,,0.01,Wunderground v.1.15,2013-09-12 13:27:00,
2013-09-12 08:32:00,75.7,73.5,30.03,West,264,2.0,4.0,93,0.00,,,0.01,Wunderground v.1.15,2013-09-12 13:32:00,
2013-09-12 08:37:00,76.1,73.9,30.03,WSW,254,1.0,4.0,93,0.00,,,0.01,Wunderground v.1.15,2013-09-12 13:37:00,
2013-09-12 08:43:00,76.5,74.0,30.03,WSW,240,3.0,4.0,92,0.00,,,0.01,Wunderground v.1.15,2013-09-12 13:43:00,
2013-09-12 08:48:00,77.0,74.5,30.03,WNW,300,4.0,4.0,92,0.00,,,0.01,Wunderground v.1.15,2013-09-12 13:48:00,
2013-09-12 08:53:00,77.1,74.3,30.03,WNW,292,0.0,5.0,91,0.00,,,0.01,Wunderground v.1.15,2013-09-12 13:53:00,
2013-09-12 08:58:00,77.5,74.7,30.03,NW,314,2.0,5.0,91,0.00,,,0.01,Wunderground v.1.15,2013-09-12 13:58:00,
2013-09-12 09:03:00,77.6,74.4,30.03,West,264,2.0,5.0,90,0.00,,,0.01,Wunderground v.1.15,2013-09-12 14:03:00,
2013-09-12 09:08:00,77.6,74.4,30.03,West,271,3.0,7.0,90,0.00,,,0.01,Wunderground v.1.15,2013-09-12 14:08:00,
2013-09-12 09:13:00,77.7,74.5,30.03,WNW,284,2.0,5.0,90,0.00,,,0.01,Wunderground v.1.15,2013-09-12 14:13:00,
2013-09-12 09:18:00,77.9,74.7,30.03,WSW,257,2.0,5.0,90,0.00,,,0.01,Wunderground v.1.15,2013-09-12 14:18:00,
2013-09-12 09:23:00,78.3,75.1,30.03,NW,311,3.0,5.0,90,0.00,,,0.01,Wunderground v.1.15,2013-09-12 14:23:00,
2013-09-12 09:28:00,78.6,75.4,30.03,WNW,287,4.0,5.0,90,0.00,,,0.01,Wunderground v.1.15,2013-09-12 14:28:00,
2013-09-12 09:33:00,78.9,75.4,30.03,WNW,295,1.0,6.0,89,0.00,,,0.01,Wunderground v.1.15,2013-09-12 14:33:00,
2013-09-12 09:38:00,79.2,75.3,30.04,NW,324,5.0,6.0,88,0.00,,,0.01,Wunderground v.1.15,2013-09-12 14:38:00,
2013-09-12 09:43:00,79.2,75.7,30.04,WNW,302,3.0,4.0,89,0.00,,,0.01,Wunderground v.1.15,2013-09-12 14:43:00,
2013-09-12 09:48:00,79.6,75.7,30.04,WNW,290,3.0,4.0,88,0.00,,,0.01,Wunderground v.1.15,2013-09-12 14:48:00,
2013-09-12 09:53:00,79.8,75.6,30.04,WNW,301,3.0,5.0,87,0.00,,,0.01,Wunderground v.1.15,2013-09-12 14:53:00,
2013-09-12 09:58:00,79.9,75.7,30.04,NW,315,3.0,5.0,87,0.00,,,0.01,Wunderground v.1.15,2013-09-12 14:58:00,
2013-09-12 10:03:00,80.1,75.9,30.04,NW,322,2.0,4.0,87,0.00,,,0.01,Wunderground v.1.15,2013-09-12 15:03:00,
2013-09-12 10:08:00,80.4,76.2,30.03,WNW,297,1.0,4.0,87,0.00,,,0.01,Wunderground v.1.15,2013-09-12 15:08:00,
2013-09-12 10:13:00,81.0,76.1,30.04,NW,310,4.0,5.0,85,0.00,,,0.01,Wunderground v.1.15,2013-09-12 15:13:00,
2013-09-12 10:18:00,81.1,75.8,30.04,NW,316,4.0,5.0,84,0.00,,,0.01,Wunderground v.1.15,2013-09-12 15:18:00,
2013-09-12 10:23:00,81.4,76.1,30.03,ESE,115,0.0,4.0,84,0.00,,,0.01,Wunderground v.1.15,2013-09-12 15:23:00,
2013-09-12 10:28:00,82.0,74.8,30.04,NNW,344,4.0,7.0,79,0.00,,,0.01,Wunderground v.1.15,2013-09-12 15:28:00,
2013-09-12 10:33:00,82.3,74.4,30.03,North,9,5.0,5.0,77,0.00,,,0.01,Wunderground v.1.15,2013-09-12 15:33:00,
2013-09-12 10:38:00,82.7,75.1,30.03,NNE,27,2.0,8.0,78,0.00,,,0.01,Wunderground v.1.15,2013-09-12 15:38:00,
2013-09-12 10:43:00,82.8,75.2,30.04,NE,37,3.0,9.0,78,0.00,,,0.01,Wunderground v.1.15,2013-09-12 15:43:00,
2013-09-12 10:48:00,82.7,74.8,30.04,NE,43,5.0,9.0,77,0.00,,,0.01,Wunderground v.1.15,2013-09-12 15:48:00,
2013-09-12 10:53:00,83.1,75.9,30.04,NE,40,2.0,9.0,79,0.00,,,0.01,Wunderground v.1.15,2013-09-12 15:53:00,
2013-09-12 10:58:00,83.1,74.7,30.03,NE,56,4.0,10.0,76,0.00,,,0.01,Wunderground v.1.15,2013-09-12 15:58:00,
2013-09-12 11:03:00,82.9,75.3,30.03,NNE,27,3.0,4.0,78,0.00,,,0.01,Wunderground v.1.15,2013-09-12 16:03:00,
2013-09-12 11:08:00,83.4,74.6,30.03,NE,42,5.0,5.0,75,0.00,,,0.01,Wunderground v.1.15,2013-09-12 16:08:00,
2013-09-12 11:13:00,83.6,75.2,30.03,WNW,297,2.0,5.0,76,0.00,,,0.01,Wunderground v.1.15,2013-09-12 16:13:00,
2013-09-12 11:18:00,83.4,75.0,30.03,North,359,2.0,5.0,76,0.00,,,0.01,Wunderground v.1.15,2013-09-12 16:18:00,
2013-09-12 11:23:00,83.7,75.3,30.03,NW,326,1.0,4.0,76,0.00,,,0.01,Wunderground v.1.15,2013-09-12 16:23:00,
2013-09-12 11:28:00,84.2,75.4,30.03,NW,326,3.0,4.0,75,0.00,,,0.01,Wunderground v.1.15,2013-09-12 16:28:00,
2013-09-12 11:33:00,84.3,74.3,30.03,NE,44,1.0,6.0,72,0.00,,,0.01,Wunderground v.1.15,2013-09-12 16:33:00,
2013-09-12 11:38:00,84.6,74.2,30.03,ENE,64,3.0,7.0,71,0.00,,,0.01,Wunderground v.1.15,2013-09-12 16:38:00,
2013-09-12 11:43:00,84.1,73.3,30.03,NNE,26,4.0,7.0,70,0.00,,,0.01,Wunderground v.1.15,2013-09-12 16:43:00,
2013-09-12 11:48:00,83.7,73.3,30.02,NNE,19,1.0,7.0,71,0.00,,,0.01,Wunderground v.1.15,2013-09-12 16:48:00,
2013-09-12 11:53:00,83.6,74.0,30.02,NNE,27,3.0,6.0,73,0.00,,,0.01,Wunderground v.1.15,2013-09-12 16:53:00,
2013-09-12 11:58:00,83.6,74.4,30.02,NE,42,4.0,6.0,74,0.00,,,0.01,Wunderground v.1.15,2013-09-12 16:58:00,
2013-09-12 12:03:00,83.7,74.1,30.02,NNE,32,3.0,4.0,73,0.00,,,0.01,Wunderground v.1.15,2013-09-12 17:03:00,
2013-09-12 12:08:00,83.7,74.1,30.01,NNE,23,0.0,4.0,73,0.00,,,0.01,Wunderground v.1.15,2013-09-12 17:08:00,
2013-09-12 12:13:00,83.9,74.3,30.01,NE,47,3.0,5.0,73,0.00,,,0.01,Wunderground v.1.15,2013-09-12 17:13:00,
2013-09-12 12:18:00,84.0,74.4,30.01,NE,54,3.0,7.0,73,0.00,,,0.01,Wunderground v.1.15,2013-09-12 17:18:00,
2013-09-12 12:23:00,84.3,74.3,30.01,ENE,57,4.0,5.0,72,0.00,,,0.01,Wunderground v.1.15,2013-09-12 17:23:00,
2013-09-12 12:28:00,84.9,74.4,30.01,NE,40,4.0,8.0,71,0.00,,,0.01,Wunderground v.1.15,2013-09-12 17:28:00,
2013-09-12 12:33:00,84.8,74.3,30.01,North,356,1.0,5.0,71,0.00,,,0.01,Wunderground v.1.15,2013-09-12 17:33:00,
2013-09-12 12:38:00,84.8,73.9,30.01,NE,41,4.0,5.0,70,0.00,,,0.01,Wunderground v.1.15,2013-09-12 17:38:00,
2013-09-12 12:43:00,84.6,73.7,30.02,NNE,20,4.0,7.0,70,0.00,,,0.01,Wunderground v.1.15,2013-09-12 17:43:00,
2013-09-12 12:48:00,84.1,72.8,30.02,NNW,334,4.0,8.0,69,0.00,,,0.01,Wunderground v.1.15,2013-09-12 17:48:00,
2013-09-12 12:54:00,84.0,72.7,30.02,NE,44,5.0,6.0,69,0.00,,,0.01,Wunderground v.1.15,2013-09-12 17:54:00,
2013-09-12 12:58:00,84.5,74.1,30.02,NE,43,3.0,6.0,71,0.00,,,0.01,Wunderground v.1.15,2013-09-12 17:58:00,
2013-09-12 13:03:00,84.9,72.7,30.01,North,360,2.0,8.0,67,0.00,,,0.01,Wunderground v.1.15,2013-09-12 18:03:00,
2013-09-12 13:09:00,85.0,73.3,30.01,NE,42,3.0,8.0,68,0.00,,,0.01,Wunderground v.1.15,2013-09-12 18:09:00,
2013-09-12 13:14:00,85.6,73.4,30.01,SE,143,1.0,7.0,67,0.00,,,0.01,Wunderground v.1.15,2013-09-12 18:14:00,
2013-09-12 13:19:00,86.0,74.2,30.01,NE,35,3.0,8.0,68,0.00,,,0.01,Wunderground v.1.15,2013-09-12 18:19:00,
2013-09-12 13:24:00,86.1,74.3,30.00,NNE,33,6.0,10.0,68,0.00,,,0.01,Wunderground v.1.15,2013-09-12 18:24:00,
2013-09-12 13:29:00,85.5,73.7,30.00,ENE,77,7.0,10.0,68,0.00,,,0.01,Wunderground v.1.15,2013-09-12 18:29:00,
2013-09-12 13:34:00,85.2,73.4,29.99,East,83,1.0,6.0,68,0.00,,,0.01,Wunderground v.1.15,2013-09-12 18:34:00,
2013-09-12 13:39:00,85.0,73.3,29.99,NE,46,1.0,9.0,68,0.00,,,0.01,Wunderground v.1.15,2013-09-12 18:39:00,
2013-09-12 13:44:00,85.2,73.0,29.99,ENE,68,0.0,5.0,67,0.00,,,0.01,Wunderground v.1.15,2013-09-12 18:44:00,
2013-09-12 13:49:00,85.4,73.2,29.98,NE,36,4.0,9.0,67,0.00,,,0.01,Wunderground v.1.15,2013-09-12 18:49:00,
2013-09-12 13:54:00,85.4,72.7,29.98,NNE,27,1.0,6.0,66,0.00,,,0.01,Wunderground v.1.15,2013-09-12 18:54:00,
2013-09-12 13:59:00,85.9,73.2,29.97,ENE,75,3.0,6.0,66,0.00,,,0.01,Wunderground v.1.15,2013-09-12 18:59:00,
2013-09-12 14:04:00,86.0,72.9,29.97,NE,46,4.0,7.0,65,0.00,,,0.01,Wunderground v.1.15,2013-09-12 19:04:00,
2013-09-12 14:09:00,85.7,72.1,29.96,NE,49,1.0,8.0,64,0.00,,,0.01,Wunderground v.1.15,2013-09-12 19:09:00,
2013-09-12 14:14:00,86.0,73.3,29.96,SSE,147,0.0,6.0,66,0.00,,,0.01,Wunderground v.1.15,2013-09-12 19:14:00,
2013-09-12 14:19:00,86.2,72.1,29.96,NE,49,4.0,6.0,63,0.00,,,0.01,Wunderground v.1.15,2013-09-12 19:19:00,
2013-09-12 14:24:00,85.9,72.8,29.95,ENE,66,0.0,6.0,65,0.00,,,0.01,Wunderground v.1.15,2013-09-12 19:24:00,
2013-09-12 14:29:00,86.6,72.5,29.95,NE,41,4.0,6.0,63,0.00,,,0.01,Wunderground v.1.15,2013-09-12 19:29:00,
2013-09-12 14:34:00,86.4,72.8,29.95,NNW,330,1.0,4.0,64,0.00,,,0.01,Wunderground v.1.15,2013-09-12 19:34:00,
2013-09-12 14:39:00,86.8,72.2,29.95,SE,134,1.0,5.0,62,0.00,,,0.01,Wunderground v.1.15,2013-09-12 19:39:00,
2013-09-12 14:44:00,87.1,73.0,29.95,NE,43,2.0,2.0,63,0.00,,,0.01,Wunderground v.1.15,2013-09-12 19:44:00,
2013-09-12 14:49:00,87.4,72.8,29.95,SSE,159,0.0,3.0,62,0.00,,,0.01,Wunderground v.1.15,2013-09-12 19:49:00,
2013-09-12 14:54:00,87.8,73.2,29.95,NW,311,1.0,3.0,62,0.00,,,0.01,Wunderground v.1.15,2013-09-12 19:54:00,
2013-09-12 14:59:00,87.6,73.0,29.95,NW,311,2.0,4.0,62,0.00,,,0.01,Wunderground v.1.15,2013-09-12 19:59:00,
2013-09-12 15:04:00,86.7,73.1,29.95,WNW,298,1.0,5.0,64,0.00,,,0.01,Wunderground v.1.15,2013-09-12 20:04:00,
2013-09-12 15:09:00,86.6,73.0,29.95,West,281,2.0,5.0,64,0.00,,,0.01,Wunderground v.1.15,2013-09-12 20:09:00,
2013-09-12 15:14:00,86.6,73.0,29.94,South,188,0.0,3.0,64,0.00,,,0.01,Wunderground v.1.15,2013-09-12 20:14:00,
2013-09-12 15:19:00,87.3,73.2,29.94,WNW,293,0.0,3.0,63,0.00,,,0.01,Wunderground v.1.15,2013-09-12 20:19:00,
2013-09-12 15:24:00,88.2,73.5,29.94,ENE,58,0.0,2.0,62,0.00,,,0.01,Wunderground v.1.15,2013-09-12 20:24:00,
2013-09-12 15:29:00,88.2,72.6,29.94,NE,51,4.0,7.0,60,0.00,,,0.01,Wunderground v.1.15,2013-09-12 20:29:00,
2013-09-12 15:34:00,87.7,72.6,29.94,ENE,65,1.0,5.0,61,0.00,,,0.01,Wunderground v.1.15,2013-09-12 20:34:00,
2013-09-12 15:39:00,87.8,72.7,29.93,ESE,109,0.0,5.0,61,0.00,,,0.01,Wunderground v.1.15,2013-09-12 20:39:00,
2013-09-12 15:44:00,87.4,73.3,29.93,NE,46,2.0,3.0,63,0.00,,,0.01,Wunderground v.1.15,2013-09-12 20:44:00,
2013-09-12 15:49:00,87.3,72.7,29.93,NE,44,1.0,5.0,62,0.00,,,0.01,Wunderground v.1.15,2013-09-12 20:49:00,
2013-09-12 15:54:00,87.6,73.4,29.93,NE,40,2.0,4.0,63,0.00,,,0.01,Wunderground v.1.15,2013-09-12 20:54:00,
2013-09-12 15:59:00,87.3,73.6,29.93,NNE,32,2.0,6.0,64,0.00,,,0.01,Wunderground v.1.15,2013-09-12 20:59:00,
2013-09-12 16:04:00,87.1,73.4,29.93,NE,41,3.0,5.0,64,0.00,,,0.01,Wunderground v.1.15,2013-09-12 21:04:00,
2013-09-12 16:09:00,86.8,73.2,29.93,ENE,75,0.0,5.0,64,0.00,,,0.01,Wunderground v.1.15,2013-09-12 21:09:00,
2013-09-12 16:14:00,86.5,73.3,29.93,NE,36,2.0,2.0,65,0.00,,,0.01,Wunderground v.1.15,2013-09-12 21:14:00,
2013-09-12 16:19:00,86.0,73.3,29.93,North,358,0.0,4.0,66,0.00,,,0.01,Wunderground v.1.15,2013-09-12 21:19:00,
2013-09-12 16:24:00,86.1,73.4,29.93,NW,318,1.0,2.0,66,0.00,,,0.01,Wunderground v.1.15,2013-09-12 21:24:00,
2013-09-12 16:29:00,86.1,73.4,29.92,North,356,1.0,3.0,66,0.00,,,0.01,Wunderground v.1.15,2013-09-12 21:29:00,
2013-09-12 16:34:00,86.4,73.7,29.92,NE,40,2.0,2.0,66,0.00,,,0.01,Wunderground v.1.15,2013-09-12 21:34:00,
2013-09-12 16:39:00,86.7,72.6,29.92,WNW,302,1.0,5.0,63,0.00,,,0.01,Wunderground v.1.15,2013-09-12 21:39:00,
2013-09-12 16:44:00,86.9,72.8,29.92,WNW,298,1.0,4.0,63,0.00,,,0.01,Wunderground v.1.15,2013-09-12 21:44:00,
2013-09-12 16:49:00,87.0,73.3,29.92,NE,40,2.0,4.0,64,0.00,,,0.01,Wunderground v.1.15,2013-09-12 21:49:00,
2013-09-12 16:54:00,87.1,73.4,29.92,NE,41,3.0,5.0,64,0.00,,,0.01,Wunderground v.1.15,2013-09-12 21:54:00,
2013-09-12 16:59:00,86.7,72.6,29.92,NW,311,0.0,1.0,63,0.00,,,0.01,Wunderground v.1.15,2013-09-12 21:59:00,
2013-09-12 17:04:00,87.1,73.4,29.92,NW,325,2.0,3.0,64,0.00,,,0.01,Wunderground v.1.15,2013-09-12 22:04:00,
2013-09-12 17:09:00,86.7,73.1,29.92,WNW,301,1.0,1.0,64,0.00,,,0.01,Wunderground v.1.15,2013-09-12 22:09:00,
2013-09-12 17:14:00,86.4,72.8,29.92,NE,41,1.0,6.0,64,0.00,,,0.01,Wunderground v.1.15,2013-09-12 22:14:00,
2013-09-12 17:19:00,86.8,72.7,29.92,NNE,16,2.0,2.0,63,0.00,,,0.01,Wunderground v.1.15,2013-09-12 22:19:00,
2013-09-12 17:24:00,87.0,72.9,29.92,WNW,291,1.0,3.0,63,0.00,,,0.01,Wunderground v.1.15,2013-09-12 22:24:00,
2013-09-12 17:29:00,87.0,72.9,29.92,NE,39,2.0,2.0,63,0.00,,,0.01,Wunderground v.1.15,2013-09-12 22:29:00,
2013-09-12 17:34:00,86.4,72.3,29.92,NNE,19,2.0,4.0,63,0.00,,,0.01,Wunderground v.1.15,2013-09-12 22:34:00,
2013-09-12 17:39:00,86.1,73.0,29.92,NNE,15,1.0,2.0,65,0.00,,,0.01,Wunderground v.1.15,2013-09-12 22:39:00,
2013-09-12 17:44:00,85.7,73.0,29.92,NNE,28,0.0,2.0,66,0.00,,,0.01,Wunderground v.1.15,2013-09-12 22:44:00,
2013-09-12 17:49:00,85.6,73.4,29.92,NNE,12,0.0,1.0,67,0.00,,,0.01,Wunderground v.1.15,2013-09-12 22:49:00,
2013-09-12 17:54:00,85.5,73.3,29.92,WNW,303,0.0,1.0,67,0.00,,,0.01,Wunderground v.1.15,2013-09-12 22:54:00,
2013-09-12 17:59:00,84.9,72.7,29.92,NE,46,0.0,0.0,67,0.00,,,0.01,Wunderground v.1.15,2013-09-12 22:59:00,
2013-09-12 18:04:00,84.4,72.7,29.92,NNW,330,0.0,3.0,68,0.00,,,0.01,Wunderground v.1.15,2013-09-12 23:04:00,
2013-09-12 18:09:00,84.6,73.3,29.92,NE,37,0.0,1.0,69,0.00,,,0.01,Wunderground v.1.15,2013-09-12 23:09:00,
2013-09-12 18:14:00,85.2,73.0,29.92,NNE,27,1.0,2.0,67,0.00,,,0.01,Wunderground v.1.15,2013-09-12 23:14:00,
2013-09-12 18:20:00,85.0,72.4,29.91,NE,38,1.0,1.0,66,0.00,,,0.01,Wunderground v.1.15,2013-09-12 23:20:00,
2013-09-12 18:25:00,84.6,72.4,29.92,NNE,20,0.0,2.0,67,0.00,,,0.01,Wunderground v.1.15,2013-09-12 23:25:00,
2013-09-12 18:30:00,84.3,72.6,29.92,NNW,330,1.0,1.0,68,0.00,,,0.01,Wunderground v.1.15,2013-09-12 23:30:00,
2013-09-12 18:35:00,83.9,72.2,29.92,NNW,330,4.0,4.0,68,0.00,,,0.01,Wunderground v.1.15,2013-09-12 23:35:00,
2013-09-12 18:40:00,83.4,71.7,29.92,NNE,29,1.0,4.0,68,0.00,,,0.01,Wunderground v.1.15,2013-09-12 23:40:00,
2013-09-12 18:45:00,83.0,71.8,29.92,NNE,24,1.0,4.0,69,0.00,,,0.01,Wunderground v.1.15,2013-09-12 23:45:00,
2013-09-12 18:50:00,82.6,71.4,29.92,North,11,1.0,2.0,69,0.00,,,0.01,Wunderground v.1.15,2013-09-12 23:50:00,
2013-09-12 18:55:00,82.2,71.4,29.93,North,7,0.0,3.0,70,0.00,,,0.01,Wunderground v.1.15,2013-09-12 23:55:00,
2013-09-12 19:01:00,81.7,71.0,29.93,NNE,32,2.0,3.0,70,0.00,,,0.01,Wunderground v.1.15,2013-09-13 00:01:00,
2013-09-12 19:06:00,81.3,71.4,29.93,ENE,76,1.0,5.0,72,0.00,,,0.01,Wunderground v.1.15,2013-09-13 00:06:00,
2013-09-12 19:11:00,81.0,71.5,29.93,NE,47,1.0,3.0,73,0.00,,,0.01,Wunderground v.1.15,2013-09-13 00:11:00,
2013-09-12 19:16:00,80.5,71.4,29.93,NNE,33,0.0,3.0,74,0.00,,,0.01,Wunderground v.1.15,2013-09-13 00:16:00,
2013-09-12 19:21:00,80.3,71.3,29.94,NE,43,1.0,2.0,74,0.00,,,0.01,Wunderground v.1.15,2013-09-13 00:21:00,
2013-09-12 19:26:00,80.1,71.5,29.94,NE,51,0.0,2.0,75,0.00,,,0.01,Wunderground v.1.15,2013-09-13 00:26:00,
2013-09-12 19:31:00,79.7,71.1,29.94,NNE,24,0.0,1.0,75,0.00,,,0.01,Wunderground v.1.15,2013-09-13 00:31:00,
2013-09-12 19:36:00,79.4,71.2,29.94,NNE,21,0.0,1.0,76,0.00,,,0.01,Wunderground v.1.15,2013-09-13 00:36:00,
2013-09-12 19:41:00,78.9,71.1,29.94,NE,37,1.0,1.0,77,0.00,,,0.01,Wunderground v.1.15,2013-09-13 00:41:00,
2013-09-12 19:46:00,78.6,70.8,29.94,NNE,29,1.0,3.0,77,0.00,,,0.01,Wunderground v.1.15,2013-09-13 00:46:00,
2013-09-12 19:51:00,78.4,71.0,29.95,NE,34,1.0,1.0,78,0.00,,,0.01,Wunderground v.1.15,2013-09-13 00:51:00,
2013-09-12 19:56:00,78.0,71.0,29.95,NE,39,0.0,3.0,79,0.00,,,0.01,Wunderground v.1.15,2013-09-13 00:56:00,
2013-09-12 20:01:00,77.7,70.7,29.95,NE,39,0.0,1.0,79,0.00,,,0.01,Wunderground v.1.15,2013-09-13 01:01:00,
2013-09-12 20:06:00,77.3,70.6,29.95,NE,39,1.0,1.0,80,0.00,,,0.01,Wunderground v.1.15,2013-09-13 01:06:00,
2013-09-12 20:11:00,77.0,70.7,29.96,NE,39,0.0,0.0,81,0.00,,,0.01,Wunderground v.1.15,2013-09-13 01:11:00,
2013-09-12 20:16:00,76.6,70.7,29.96,NE,39,0.0,0.0,82,0.00,,,0.01,Wunderground v.1.15,2013-09-13 01:16:00,
2013-09-12 20:21:00,76.4,70.9,29.96,NE,39,0.0,0.0,83,0.00,,,0.01,Wunderground v.1.15,2013-09-13 01:21:00,
2013-09-12 20:26:00,76.2,70.7,29.96,NE,44,1.0,5.0,83,0.00,,,0.01,Wunderground v.1.15,2013-09-13 01:26:00,
2013-09-12 20:31:00,76.3,70.0,29.96,NE,41,4.0,6.0,81,0.00,,,0.01,Wunderground v.1.15,2013-09-13 01:31:00,
2013-09-12 20:36:00,76.5,69.5,29.96,NE,51,1.0,6.0,79,0.00,,,0.01,Wunderground v.1.15,2013-09-13 01:36:00,
2013-09-12 20:41:00,76.5,69.5,29.96,NNE,27,0.0,2.0,79,0.00,,,0.01,Wunderground v.1.15,2013-09-13 01:41:00,
2013-09-12 20:46:00,76.4,69.4,29.97,NE,41,0.0,3.0,79,0.00,,,0.01,Wunderground v.1.15,2013-09-13 01:46:00,
2013-09-12 20:51:00,76.1,69.1,29.97,NE,43,1.0,1.0,79,0.00,,,0.01,Wunderground v.1.15,2013-09-13 01:51:00,
2013-09-12 20:56:00,75.8,68.8,29.97,NE,43,0.0,2.0,79,0.00,,,0.01,Wunderground v.1.15,2013-09-13 01:56:00,
2013-09-12 21:01:00,75.5,68.9,29.97,NE,43,0.0,0.0,80,0.00,,,0.01,Wunderground v.1.15,2013-09-13 02:01:00,
2013-09-12 21:06:00,74.9,68.7,29.97,NE,43,0.0,0.0,81,0.00,,,0.01,Wunderground v.1.15,2013-09-13 02:06:00,
2013-09-12 21:11:00,74.4,68.9,29.97,NE,43,0.0,0.0,83,0.00,,,0.01,Wunderground v.1.15,2013-09-13 02:11:00,
2013-09-12 21:16:00,73.6,68.1,29.97,NE,43,0.0,0.0,83,0.00,,,0.01,Wunderground v.1.15,2013-09-13 02:16:00,
2013-09-12 21:21:00,72.9,68.1,29.97,NE,43,0.0,0.0,85,0.00,,,0.01,Wunderground v.1.15,2013-09-13 02:21:00,
2013-09-12 21:26:00,72.4,68.3,29.97,NE,43,0.0,0.0,87,0.00,,,0.01,Wunderground v.1.15,2013-09-13 02:26:00,
2013-09-12 21:31:00,71.8,67.7,29.97,NE,43,0.0,0.0,87,0.00,,,0.01,Wunderground v.1.15,2013-09-13 02:31:00,
2013-09-12 21:36:00,71.3,67.6,29.97,NE,43,0.0,0.0,88,0.00,,,0.01,Wunderground v.1.15,2013-09-13 02:36:00,
2013-09-12 21:41:00,70.9,67.5,29.97,NE,43,0.0,0.0,89,0.00,,,0.01,Wunderground v.1.15,2013-09-13 02:41:00,
2013-09-12 21:46:00,70.6,67.5,29.97,NE,43,0.0,0.0,90,0.00,,,0.01,Wunderground v.1.15,2013-09-13 02:46:00,
2013-09-12 21:51:00,70.5,67.4,29.97,NE,43,0.0,0.0,90,0.00,,,0.01,Wunderground v.1.15,2013-09-13 02:51:00,
2013-09-12 21:56:00,70.3,67.2,29.97,NE,43,0.0,0.0,90,0.00,,,0.01,Wunderground v.1.15,2013-09-13 02:56:00,
2013-09-12 22:01:00,70.1,67.0,29.96,NE,43,0.0,0.0,90,0.00,,,0.01,Wunderground v.1.15,2013-09-13 03:01:00,
2013-09-12 22:06:00,69.9,67.2,29.97,NE,43,0.0,0.0,91,0.00,,,0.01,Wunderground v.1.15,2013-09-13 03:06:00,
2013-09-12 22:11:00,69.8,67.1,29.97,NE,43,0.0,0.0,91,0.00,,,0.01,Wunderground v.1.15,2013-09-13 03:11:00,
2013-09-12 22:16:00,69.6,66.9,29.97,NE,43,0.0,0.0,91,0.00,,,0.01,Wunderground v.1.15,2013-09-13 03:16:00,
2013-09-12 22:21:00,69.3,66.6,29.97,NE,43,0.0,0.0,91,0.00,,,0.01,Wunderground v.1.15,2013-09-13 03:21:00,
2013-09-12 22:26:00,69.1,66.7,29.97,NE,43,0.0,0.0,92,0.00,,,0.01,Wunderground v.1.15,2013-09-13 03:26:00,
2013-09-12 22:31:00,68.9,66.5,29.97,NE,43,0.0,0.0,92,0.00,,,0.01,Wunderground v.1.15,2013-09-13 03:31:00,
2013-09-12 22:36:00,68.6,66.2,29.97,NE,43,0.0,0.0,92,0.00,,,0.01,Wunderground v.1.15,2013-09-13 03:36:00,
2013-09-12 22:41:00,68.4,66.3,29.97,NE,43,0.0,0.0,93,0.00,,,0.01,Wunderground v.1.15,2013-09-13 03:41:00,
2013-09-12 22:46:00,68.2,66.1,29.97,NE,42,0.0,0.0,93,0.00,,,0.01,Wunderground v.1.15,2013-09-13 03:46:00,
2013-09-12 22:51:00,68.0,65.9,29.97,NE,43,0.0,0.0,93,0.00,,,0.01,Wunderground v.1.15,2013-09-13 03:51:00,
2013-09-12 22:56:00,67.8,65.7,29.97,NE,43,0.0,0.0,93,0.00,,,0.01,Wunderground v.1.15,2013-09-13 03:56:00,
2013-09-12 23:01:00,67.8,66.0,29.97,NE,43,0.0,0.0,94,0.00,,,0.01,Wunderground v.1.15,2013-09-13 04:01:00,
2013-09-12 23:06:00,67.7,65.6,29.97,NE,43,0.0,0.0,93,0.00,,,0.01,Wunderground v.1.15,2013-09-13 04:06:00,
2013-09-12 23:11:00,67.6,65.8,29.97,NE,43,0.0,0.0,94,0.00,,,0.01,Wunderground v.1.15,2013-09-13 04:11:00,
2013-09-12 23:16:00,67.6,65.5,29.97,NE,43,0.0,0.0,93,0.00,,,0.01,Wunderground v.1.15,2013-09-13 04:16:00,
2013-09-12 23:21:00,67.5,65.4,29.97,NE,42,0.0,0.0,93,0.00,,,0.01,Wunderground v.1.15,2013-09-13 04:21:00,
2013-09-12 23:26:00,67.3,65.5,29.98,NE,43,0.0,0.0,94,0.00,,,0.01,Wunderground v.1.15,2013-09-13 04:26:00,
2013-09-12 23:31:00,67.2,65.4,29.98,NE,43,0.0,0.0,94,0.00,,,0.01,Wunderground v.1.15,2013-09-13 04:31:00,
2013-09-12 23:36:00,67.2,65.1,29.98,NNE,29,0.0,2.0,93,0.00,,,0.01,Wunderground v.1.15,2013-09-13 04:36:00,
2013-09-12 23:41:00,68.1,65.1,29.98,ENE,60,2.0,2.0,90,0.00,,,0.01,Wunderground v.1.15,2013-09-13 04:41:00,
2013-09-12 23:46:00,69.4,65.4,29.98,NE,46,0.0,3.0,87,0.00,,,0.01,Wunderground v.1.15,2013-09-13 04:46:00,
2013-09-12 23:51:00,70.1,65.0,29.98,NE,50,1.0,2.0,84,0.00,,,0.01,Wunderground v.1.15,2013-09-13 04:51:00,
2013-09-12 23:56:00,70.7,64.9,29.98,ENE,63,1.0,3.0,82,0.00,,,0.01,Wunderground v.1.15,2013-09-13 04:56:00,